RJTY Airport Information

Runway Information
Runway 18 Length 11000 ft width 200 ft
Elevation 463 ft Threshold 0 ft Heading 170
Runway 36 Length 11000 ft Width 200 ft
Elevation 417 ft Threshold 0 ft Heading 350
Airport Frequencies
Type A/G Name AG Frequency 29.21 MHZ
Type AAS Name RADAR ADVS Frequency 118.3 MHZ
Type APP Name APP Frequency 118.3 MHZ
Type ATIS Name ATIS Frequency 128.4 MHZ
Type CLD Name CLNC DEL Frequency 131.4 MHZ
Type DEP Name DEP Frequency 122.1 MHZ
Type GND Name GND Frequency 133.2 MHZ
Type PMSV Name PMSV METRO Frequency 34.46 MHZ
Type POST Name AMC COMD P Frequency 128 MHZ
Type PTD Name PTD Frequency 119 MHZ
Type RDO Name 374 AW COM Frequency 128 MHZ
Type TWR Name TWR Frequency 134.3 MHZ
Airport Navaids
Type TACAN Name Yokota Frequency 113800 KHZ
Airport Weather Information & NOTAM
ADDS - METARS form results

(1709 UTC 23 July 2018)
 
METAR text: RJTY 231656Z AUTO 01009KT 10SM CLR 27/23 A2977 RMK AO2 SLP074 T02650225 FZRANO $
Conditions at: RJTY (YOKOTA (JASDF/US, JP) observed 1656 UTC 23 July 2018
Temperature: 26.5°C (80°F)
Dewpoint: 22.5°C (72°F) [RH = 79%]
Pressure (altimeter): 29.77 inches Hg (1008.2 mb)
[Sea-level pressure: 1007.4 mb]
Winds: from the N (10 degrees) at 10 MPH (9 knots; 4.7 m/s)
Visibility: 10 or more miles (16+ km)
Ceiling: at least 12,000 feet AGL
Clouds: sky clear below 12,000 feet AGL
Weather:
SOME DATA ABOVE MAY BE INACCURATE!!!
"$" is an indication the sensor requires maintenance